Terminal Aerodrome Forecast
Issued by NWS Charleston, WV

Current Version | Previous Version | Graphics & Text | Print | Product List | Glossary On
Versions: 1 2 3 4 5 6 7 8 9 10 11 12 13 14 15 16 17 18 19 20 21
000
FTUS41 KRLX 161100 RRA
TAFPKB
TAF
KPKB 161153Z 1612/1712 16007KT 6SM -SHRA BR OVC030
     FM161500 20009KT P6SM OVC030
     FM161600 22013G24KT 4SM -SHRA BR OVC025
     FM161800 23012G22KT P6SM OVC022
     FM162000 23011G20KT P6SM OVC016
     FM170400 24010G16KT P6SM OVC010
     FM170900 25009KT P6SM OVC010=

USA.gov is the U.S. government's official web portal to all federal, state and local government web resources and services.